Time;durP1;ratioP1;P1;durP2;ratioP2;P2;SDS_P1;SDS_P2;PMS_P1;PMS_P2;Temp;Humidity;BMP_temperature;BMP_pressure;BME280_temperature;BME280_humidity;BME280_pressure;Samples;Min_cycle;Max_cycle;Signal;HPM_P1;HPM_P2
2022/09/02 00:01:16;;;;;;;11.65;5.90;;;;;;;24.75;59.23;100459.91;5016427;28;20388;-88
2022/09/02 00:03:42;;;;;;;10.35;6.47;;;;;;;24.76;59.25;100459.69;4998929;28;20042;-88
2022/09/02 00:06:08;;;;;;;15.85;6.15;;;;;;;24.81;59.09;100465.38;5016530;28;20038;-88
2022/09/02 00:08:33;;;;;;;23.20;7.40;;;;;;;24.70;59.50;100455.06;5016305;28;20389;-87
2022/09/02 00:11:00;;;;;;;8.75;6.18;;;;;;;24.77;59.28;100463.25;5017123;28;20040;-89
2022/09/02 00:13:27;;;;;;;9.38;5.80;;;;;;;24.74;59.35;100464.56;5017417;28;20041;-90
2022/09/02 00:15:53;;;;;;;8.40;6.28;;;;;;;24.79;59.24;100463.91;5016374;28;20499;-88
2022/09/02 00:18:19;;;;;;;12.65;6.78;;;;;;;24.66;59.16;100461.22;5016183;28;20553;-88
2022/09/02 00:20:47;;;;;;;13.63;6.68;;;;;;;24.72;59.18;100476.84;5016544;28;20034;-89
2022/09/02 00:23:15;;;;;;;9.85;6.68;;;;;;;24.68;59.11;100470.94;5016368;28;20038;-88
2022/09/02 00:25:43;;;;;;;9.40;6.28;;;;;;;24.53;59.18;100453.88;5017880;28;20037;-88
2022/09/02 00:28:09;;;;;;;12.07;7.63;;;;;;;24.54;59.36;100469.31;5017684;28;20042;-87
2022/09/02 00:30:34;;;;;;;17.70;6.78;;;;;;;24.53;59.24;100472.28;5016003;28;20073;-88
2022/09/02 00:33:00;;;;;;;11.95;6.93;;;;;;;24.47;59.33;100457.50;5015754;28;20091;-88
2022/09/02 00:35:26;;;;;;;10.40;6.80;;;;;;;24.58;59.57;100469.75;5015373;28;20026;-89
2022/09/02 00:37:52;;;;;;;13.68;6.22;;;;;;;24.51;59.46;100457.91;5015675;28;20095;-88
2022/09/02 00:40:18;;;;;;;20.10;7.05;;;;;;;24.56;59.40;100464.44;5015373;28;20443;-88
2022/09/02 00:42:43;;;;;;;9.98;6.93;;;;;;;24.56;59.22;100469.09;5016297;28;20034;-89
2022/09/02 00:45:10;;;;;;;10.30;6.30;;;;;;;24.52;59.41;100463.22;5015904;28;20061;-88
2022/09/02 00:47:36;;;;;;;14.38;7.03;;;;;;;24.44;59.11;100459.84;5015753;28;20030;-89
2022/09/02 00:50:05;;;;;;;7.68;6.43;;;;;;;24.44;59.36;100457.94;5015393;28;20495;-89
2022/09/02 00:52:39;;;;;;;14.65;6.38;;;;;;;24.41;59.78;100468.53;5015475;28;20026;-88
2022/09/02 00:55:19;;;;;;;11.40;5.90;;;;;;;24.37;59.50;100459.91;5015399;28;20048;-88
2022/09/02 00:58:07;;;;;;;15.20;6.75;;;;;;;24.38;59.83;100458.81;5015348;28;20037;-88
2022/09/02 01:00:37;;;;;;;10.63;5.70;;;;;;;24.41;59.66;100455.63;5015242;28;20026;-88
2022/09/02 01:03:06;;;;;;;13.70;6.93;;;;;;;24.43;59.33;100460.94;5015332;28;20054;-88
2022/09/02 01:05:35;;;;;;;13.50;6.72;;;;;;;24.53;59.48;100456.63;5015265;28;20029;-88
2022/09/02 01:08:06;;;;;;;11.93;6.72;;;;;;;24.47;59.27;100452.00;5015012;28;20061;-88
2022/09/02 01:10:33;;;;;;;11.52;6.75;;;;;;;24.48;59.15;100456.47;5014503;28;20041;-88
2022/09/02 01:13:11;;;;;;;13.80;6.22;;;;;;;24.54;59.12;100454.72;5014740;28;20052;-88
2022/09/02 01:15:42;;;;;;;16.00;6.90;;;;;;;24.52;59.03;100459.63;4997308;28;20112;-88
2022/09/02 01:18:11;;;;;;;14.38;6.50;;;;;;;24.53;59.15;100459.38;5015669;28;20034;-88
2022/09/02 01:20:37;;;;;;;10.73;6.25;;;;;;;24.58;59.02;100462.34;5014972;28;20463;-88
2022/09/02 01:23:02;;;;;;;12.50;5.60;;;;;;;24.52;59.23;100465.13;5014752;28;20488;-88
2022/09/02 01:25:32;;;;;;;9.38;6.50;;;;;;;24.52;58.97;100449.47;5014854;28;20037;-88
2022/09/02 01:28:04;;;;;;;14.73;5.85;;;;;;;24.50;59.21;100468.06;5015268;28;20030;-88
2022/09/02 01:30:30;;;;;;;11.57;5.90;;;;;;;24.51;59.01;100469.75;5015855;28;20040;-89
2022/09/02 01:32:56;;;;;;;19.33;6.43;;;;;;;24.44;59.05;100465.34;5014996;28;20126;-89
2022/09/02 01:35:22;;;;;;;17.17;6.32;;;;;;;24.39;59.30;100471.53;5014762;28;20030;-89
2022/09/02 01:37:47;;;;;;;11.80;6.45;;;;;;;;;;5014996;28;20030;-89
2022/09/02 01:40:14;;;;;;;9.93;6.05;;;;;;;;;;4997889;28;20073;-88
2022/09/02 01:42:41;;;;;;;12.75;5.50;;;;;;;24.25;59.72;100454.22;5015439;28;20057;-87
2022/09/02 01:45:07;;;;;;;14.35;5.82;;;;;;;24.27;59.88;100463.13;5015648;28;20040;-89
2022/09/02 01:47:34;;;;;;;10.68;5.70;;;;;;;24.31;59.71;100464.34;5015137;28;20053;-88
2022/09/02 01:50:00;;;;;;;10.35;5.60;;;;;;;;;;5014924;28;20056;-88
2022/09/02 01:52:27;;;;;;;12.73;6.57;;;;;;;24.33;59.97;100450.41;5015082;28;20033;-89
2022/09/02 01:54:53;;;;;;;13.38;6.03;;;;;;;24.30;60.12;100448.09;5014781;28;20038;-89
2022/09/02 01:57:22;;;;;;;15.48;5.25;;;;;;;24.37;60.13;100446.16;5015397;28;20040;-88
2022/09/02 01:59:47;;;;;;;17.55;5.82;;;;;;;24.34;60.37;100452.09;5015703;28;20056;-89
2022/09/02 02:02:13;;;;;;;15.35;5.95;;;;;;;24.31;60.49;100444.28;5015534;28;20491;-88
2022/09/02 02:04:38;;;;;;;10.57;4.88;;;;;;;24.39;60.54;100444.03;5015114;28;20484;-89
2022/09/02 02:07:04;;;;;;;10.55;5.15;;;;;;;24.33;60.55;100440.25;5015335;28;20034;-89
2022/09/02 02:09:30;;;;;;;10.32;5.05;;;;;;;24.45;60.35;100445.06;5014034;28;20092;-89
2022/09/02 02:11:55;;;;;;;11.60;5.25;;;;;;;24.44;60.72;100438.69;5014084;28;20030;-89
2022/09/02 02:14:21;;;;;;;10.98;5.28;;;;;;;24.48;60.48;100437.22;5014536;28;20431;-90
2022/09/02 02:16:48;;;;;;;10.35;4.47;;;;;;;24.45;60.90;100432.16;5013753;28;20539;-88
2022/09/02 02:19:14;;;;;;;8.00;4.85;;;;;;;24.47;60.93;100435.50;5013918;28;20041;-88
2022/09/02 02:21:39;;;;;;;9.02;4.80;;;;;;;24.53;60.84;100434.63;5017133;28;20025;-89
2022/09/02 02:24:07;;;;;;;12.65;4.80;;;;;;;24.49;60.88;100427.06;5017771;28;20527;-88
2022/09/02 02:26:34;;;;;;;15.60;4.07;;;;;;;24.58;60.84;100429.34;5018017;28;20036;-87
2022/09/02 02:28:59;;;;;;;21.70;5.68;;;;;;;24.61;60.86;100431.66;5017687;28;20046;-87
2022/09/02 02:31:25;;;;;;;10.70;4.82;;;;;;;24.60;60.93;100427.19;5017843;28;20041;-88
2022/09/02 02:33:50;;;;;;;15.25;5.03;;;;;;;24.58;61.15;100432.09;5017726;28;20116;-90
2022/09/02 02:36:16;;;;;;;13.32;4.57;;;;;;;24.52;61.57;100419.22;5018108;28;20084;-89
2022/09/02 02:38:44;;;;;;;10.25;4.95;;;;;;;24.62;61.34;100425.06;5018161;28;20065;-89
2022/09/02 02:41:13;;;;;;;11.02;4.32;;;;;;;24.60;61.84;100424.44;5018241;28;20033;-89
2022/09/02 02:43:39;;;;;;;12.05;4.95;;;;;;;24.55;61.84;100410.53;5017968;28;20041;-87
2022/09/02 02:46:06;;;;;;;14.85;5.30;;;;;;;24.66;61.79;100404.31;5019087;28;20045;-88
2022/09/02 02:48:34;;;;;;;14.65;5.03;;;;;;;24.74;61.52;100427.94;5000330;28;20096;-88
2022/09/02 02:51:01;;;;;;;9.30;4.50;;;;;;;24.71;61.66;100420.97;5018711;28;20042;-88
2022/09/02 02:53:28;;;;;;;7.80;3.92;;;;;;;24.66;61.84;100407.06;5018205;28;20546;-89
2022/09/02 02:55:54;;;;;;;17.27;4.30;;;;;;;24.69;61.99;100409.38;5018198;28;20056;-88
2022/09/02 02:58:20;;;;;;;9.88;4.38;;;;;;;24.80;61.86;100414.16;5019801;28;20728;-88
2022/09/02 03:00:46;;;;;;;9.07;4.35;;;;;;;24.89;61.65;100428.53;5019590;28;20480;-89
2022/09/02 03:03:13;;;;;;;17.05;8.07;;;;;;;24.92;61.66;100427.25;5018401;28;20554;-88
2022/09/02 03:05:39;;;;;;;7.00;3.83;;;;;;;24.85;61.81;100414.38;5019076;28;20038;-90
2022/09/02 03:08:08;;;;;;;17.35;4.22;;;;;;;24.94;61.58;100430.59;5019362;28;20040;-89
2022/09/02 03:10:35;;;;;;;8.27;3.90;;;;;;;24.86;61.70;100416.03;5019715;28;20117;-89
2022/09/02 03:13:01;;;;;;;15.15;4.85;;;;;;;24.85;62.16;100428.13;5019429;28;20060;-89
2022/09/02 03:15:28;;;;;;;11.43;4.68;;;;;;;24.82;62.43;100412.06;5020078;28;20113;-88
2022/09/02 03:17:55;;;;;;;13.60;4.50;;;;;;;24.90;62.41;100425.53;5018701;28;20037;-81
2022/09/02 03:20:22;;;;;;;10.30;4.45;;;;;;;24.88;62.50;100427.69;5016181;28;20499;-82
2022/09/02 03:22:49;;;;;;;11.43;5.35;;;;;;;24.82;62.91;100422.22;5016523;28;20061;-81
2022/09/02 03:25:19;;;;;;;9.18;4.30;;;;;;;24.84;62.71;100409.91;5016670;28;20380;-84
2022/09/02 03:27:44;;;;;;;13.63;4.40;;;;;;;24.92;62.85;100423.41;5016754;28;20036;-83
2022/09/02 03:30:14;;;;;;;16.33;4.60;;;;;;;24.95;62.93;100426.78;5017170;28;20109;-83
2022/09/02 03:32:39;;;;;;;12.02;4.03;;;;;;;24.92;62.85;100427.25;5015875;28;20415;-84
2022/09/02 03:35:08;;;;;;;20.27;5.03;;;;;;;24.92;62.91;100428.91;5016413;28;20041;-79
2022/09/02 03:37:35;;;;;;;13.48;4.60;;;;;;;24.99;62.82;100436.25;5015240;28;20476;-78
2022/09/02 03:40:03;;;;;;;9.52;3.83;;;;;;;24.96;62.80;100433.97;5015306;28;20562;-78
2022/09/02 03:42:28;;;;;;;7.57;4.60;;;;;;;24.94;62.93;100433.34;5015422;28;20034;-78
2022/09/02 03:44:54;;;;;;;12.48;5.10;;;;;;;24.90;63.14;100431.03;5014787;28;20052;-79
2022/09/02 03:47:20;;;;;;;23.88;5.65;;;;;;;24.95;63.10;100427.63;5015553;28;20095;-80
2022/09/02 03:49:46;;;;;;;20.60;6.10;;;;;;;24.96;62.95;100433.97;5015333;28;20098;-84
2022/09/02 03:52:11;;;;;;;10.60;4.70;;;;;;;24.96;63.24;100439.47;5017034;28;20117;-82
2022/09/02 03:54:37;;;;;;;7.82;4.55;;;;;;;24.96;63.23;100437.56;5017292;28;20029;-85
2022/09/02 03:57:02;;;;;;;14.75;4.13;;;;;;;24.92;63.46;100430.84;5016837;28;20034;-85
2022/09/02 03:59:28;;;;;;;14.82;5.28;;;;;;;24.92;63.66;100438.25;5018193;28;20037;-87
2022/09/02 04:01:54;;;;;;;15.68;7.25;;;;;;;24.94;63.40;100430.59;5017306;28;20064;-86
2022/09/02 04:04:20;;;;;;;21.20;5.72;;;;;;;24.94;63.99;100447.09;5018172;28;20042;-85
2022/09/02 04:06:45;;;;;;;6.65;4.22;;;;;;;24.94;63.79;100441.59;5015959;28;20038;-81
2022/09/02 04:09:11;;;;;;;17.55;4.78;;;;;;;24.92;63.83;100445.41;5016172;28;20030;-88
2022/09/02 04:11:41;;;;;;;10.95;6.80;;;;;;;25.03;63.73;100451.28;5016160;28;20049;-80
2022/09/02 04:14:08;;;;;;;9.23;4.70;;;;;;;25.05;63.75;100446.38;5014511;28;20112;-81
2022/09/02 04:16:34;;;;;;;11.85;5.03;;;;;;;25.04;63.95;100441.97;5015521;28;20034;-83
2022/09/02 04:19:03;;;;;;;24.52;4.70;;;;;;;25.02;63.85;100435.81;5014859;28;20526;-83
2022/09/02 04:21:32;;;;;;;15.45;5.05;;;;;;;25.06;63.74;100434.31;5015799;28;20073;-84
2022/09/02 04:23:58;;;;;;;14.77;5.53;;;;;;;25.13;63.75;100440.63;5015414;28;20038;-82
2022/09/02 04:26:24;;;;;;;11.32;6.18;;;;;;;25.14;63.80;100436.78;5015465;28;20041;-83
2022/09/02 04:28:50;;;;;;;17.27;7.15;;;;;;;25.22;63.72;100455.78;5014886;28;20042;-84
2022/09/02 04:31:19;;;;;;;13.77;5.60;;;;;;;25.15;63.57;100453.09;5015982;28;20038;-81
2022/09/02 04:33:45;;;;;;;24.30;7.18;;;;;;;25.14;63.45;100442.28;5014965;28;20038;-81
2022/09/02 04:36:14;;;;;;;35.65;7.50;;;;;;;25.14;62.96;100447.78;5013642;28;20103;-80
2022/09/02 04:38:39;;;;;;;13.65;4.95;;;;;;;25.10;62.42;100449.31;4997764;28;20038;-83
2022/09/02 04:41:11;;;;;;;17.48;5.90;;;;;;;25.01;63.11;100465.28;5014733;28;20046;-84
2022/09/02 04:43:37;;;;;;;65.03;11.40;;;;;;;25.05;62.83;100457.38;5014711;28;20124;-85
2022/09/02 04:46:07;;;;;;;12.07;5.90;;;;;;;25.09;62.50;100469.66;5014255;28;20053;-79
2022/09/02 04:48:35;;;;;;;13.77;5.10;;;;;;;25.05;62.59;100461.00;5013678;28;20038;-80
2022/09/02 04:51:12;;;;;;;25.17;6.13;;;;;;;25.00;62.65;100452.56;5013083;28;20519;-79
2022/09/02 04:53:38;;;;;;;28.40;8.63;;;;;;;25.03;62.74;100457.63;5014138;28;20084;-82
2022/09/02 04:56:06;;;;;;;15.80;6.28;;;;;;;25.01;62.60;100442.41;5014358;28;20484;-80
2022/09/02 04:58:31;;;;;;;15.63;5.32;;;;;;;25.12;62.31;100461.78;5014119;28;20060;-85
2022/09/02 05:00:57;;;;;;;16.40;5.78;;;;;;;25.07;62.21;100458.88;5015161;28;20472;-83
2022/09/02 05:03:23;;;;;;;33.40;5.50;;;;;;;25.16;62.11;100456.69;5014942;28;20119;-83
2022/09/02 05:06:01;;;;;;;16.77;6.60;;;;;;;25.16;61.92;100448.44;5014511;28;20100;-83
2022/09/02 05:08:27;;;;;;;16.02;6.03;;;;;;;25.13;62.47;100457.13;5014267;28;20046;-84
2022/09/02 05:10:52;;;;;;;11.25;5.85;;;;;;;25.21;62.45;100463.19;5014495;28;20041;-83
2022/09/02 05:13:18;;;;;;;18.45;5.68;;;;;;;25.15;62.59;100446.72;5014621;28;20061;-84
2022/09/02 05:15:44;;;;;;;16.75;5.60;;;;;;;25.24;62.80;100461.91;5015013;28;20094;-84
2022/09/02 05:18:10;;;;;;;14.80;6.22;;;;;;;25.24;62.97;100457.25;4996860;28;20038;-85
2022/09/02 05:20:38;;;;;;;28.83;6.25;;;;;;;25.30;63.15;100469.25;5014531;28;20045;-84
2022/09/02 05:23:04;;;;;;;19.98;6.15;;;;;;;25.40;63.16;100469.63;5014851;28;20145;-84
2022/09/02 05:25:30;;;;;;;18.33;4.60;;;;;;;25.45;63.15;100467.00;5014120;28;20038;-84
2022/09/02 05:27:56;;;;;;;24.35;6.43;;;;;;;25.58;63.44;100464.19;5014423;28;20052;-85
2022/09/02 05:30:21;;;;;;;19.33;6.30;;;;;;;25.70;63.34;100469.78;5014048;28;20128;-83
2022/09/02 05:32:48;;;;;;;31.70;6.18;;;;;;;25.74;63.37;100458.09;5014107;28;20117;-88
2022/09/02 05:35:14;;;;;;;20.50;4.85;;;;;;;25.86;62.85;100453.50;5015141;28;20407;-87
2022/09/02 05:37:40;;;;;;;18.10;5.93;;;;;;;25.96;62.98;100464.81;5012450;28;20056;-77
2022/09/02 05:40:06;;;;;;;19.48;6.25;;;;;;;26.00;62.62;100451.44;5013506;28;20045;-83
2022/09/02 05:42:32;;;;;;;19.00;6.57;;;;;;;26.07;62.34;100454.13;5014812;28;20034;-82
2022/09/02 05:44:57;;;;;;;26.63;5.80;;;;;;;26.20;62.11;100463.13;5013152;28;20836;-80
2022/09/02 05:47:24;;;;;;;17.02;5.93;;;;;;;26.27;61.43;100460.25;5012414;28;20030;-80
2022/09/02 05:49:50;;;;;;;23.05;6.28;;;;;;;26.34;61.42;100466.53;5012511;28;20504;-83
2022/09/02 05:52:16;;;;;;;15.75;5.82;;;;;;;26.32;61.63;100460.44;5013316;28;20045;-86
2022/09/02 05:54:43;;;;;;;37.55;6.28;;;;;;;26.42;61.68;100469.00;5013671;28;20033;-80
2022/09/02 05:57:15;;;;;;;22.33;5.53;;;;;;;26.49;61.55;100465.06;4995411;28;20180;-82
2022/09/02 05:59:41;;;;;;;27.55;6.75;;;;;;;26.49;61.63;100472.50;5012894;28;20033;-84
2022/09/02 06:02:12;;;;;;;17.65;5.88;;;;;;;26.49;61.92;100478.00;5014116;28;20050;-81
2022/09/02 06:04:44;;;;;;;17.67;5.30;;;;;;;26.50;62.57;100482.47;5013339;28;20487;-81
2022/09/02 06:07:10;;;;;;;23.38;6.35;;;;;;;26.57;62.26;100474.97;5012793;28;20046;-81
2022/09/02 06:09:36;;;;;;;14.40;4.95;;;;;;;26.62;62.62;100475.09;5013386;28;20070;-83
2022/09/02 06:12:02;;;;;;;24.23;6.05;;;;;;;26.67;62.13;100482.66;5014997;28;20026;-88
2022/09/02 06:14:28;;;;;;;22.38;5.97;;;;;;;26.73;62.16;100482.56;4996325;28;20096;-81
2022/09/02 06:16:54;;;;;;;14.93;5.95;;;;;;;26.68;62.35;100478.81;5012786;28;20065;-83
2022/09/02 06:19:21;;;;;;;30.23;5.43;;;;;;;26.68;62.72;100490.72;5012410;28;20507;-90
2022/09/02 06:21:48;;;;;;;19.27;6.45;;;;;;;26.75;62.53;100488.72;5014030;28;20065;-83
2022/09/02 06:24:13;;;;;;;15.07;4.97;;;;;;;26.81;62.44;100485.06;4994968;28;20041;-82
2022/09/02 06:26:40;;;;;;;22.80;6.35;;;;;;;26.87;62.56;100494.31;5012430;28;20092;-85
2022/09/02 06:29:07;;;;;;;21.90;5.95;;;;;;;26.78;62.37;100479.97;5013417;28;20041;-83
2022/09/02 06:31:33;;;;;;;27.30;6.43;;;;;;;26.89;62.56;100484.72;5012108;28;20133;-84
2022/09/02 06:34:00;;;;;;;20.35;5.60;;;;;;;26.91;62.63;100490.81;5013222;28;20042;-83
2022/09/02 06:36:28;;;;;;;13.57;5.20;;;;;;;26.97;62.77;100489.88;5012698;28;20165;-89
2022/09/02 06:38:57;;;;;;;12.63;5.22;;;;;;;27.00;62.53;100494.94;5015755;28;20037;-83
2022/09/02 06:41:27;;;;;;;39.50;7.57;;;;;;;27.03;62.39;100499.97;5012781;28;20109;-85
2022/09/02 06:43:55;;;;;;;40.33;6.78;;;;;;;26.96;63.23;100499.25;5013179;28;20038;-84
2022/09/02 06:46:23;;;;;;;19.73;5.70;;;;;;;27.08;63.42;100506.72;5012199;28;20113;-83
2022/09/02 06:48:49;;;;;;;29.98;7.65;;;;;;;27.07;63.32;100502.28;4995495;28;20038;-84
2022/09/02 06:51:20;;;;;;;37.45;9.73;;;;;;;27.10;63.53;100510.94;5012444;28;20546;-79
2022/09/02 06:53:45;;;;;;;14.35;5.65;;;;;;;27.10;63.73;100505.41;5013227;28;20037;-87
2022/09/02 06:56:11;;;;;;;28.58;6.90;;;;;;;27.13;63.90;100515.13;5013768;28;20045;-85
2022/09/02 06:58:36;;;;;;;29.25;7.10;;;;;;;27.18;63.38;100515.28;5012885;28;20527;-83
2022/09/02 07:01:02;;;;;;;37.15;7.95;;;;;;;27.18;63.45;100513.38;5012126;28;20084;-82
2022/09/02 07:06:12;;;;;;;34.58;8.38;;;;;;;27.18;64.70;100509.78;5014920;28;20053;-84
2022/09/02 07:08:43;;;;;;;20.98;7.25;;;;;;;27.29;64.45;100503.44;5018512;28;20033;-88
2022/09/02 07:11:22;;;;;;;40.72;7.60;;;;;;;27.41;63.50;100509.81;5017133;28;20042;-86
2022/09/02 07:13:48;;;;;;;41.88;7.57;;;;;;;27.45;62.52;100491.72;4997777;28;20034;-80
2022/09/02 07:16:14;;;;;;;25.77;7.10;;;;;;;27.61;62.81;100509.53;5016670;28;20041;-89
2022/09/02 07:18:39;;;;;;;28.50;7.55;;;;;;;27.72;62.64;100508.69;5017506;28;20038;-90
2022/09/02 07:21:12;;;;;;;28.13;8.43;;;;;;;27.77;62.92;100517.94;5016356;28;20042;-82
2022/09/02 07:23:38;;;;;;;32.22;7.65;;;;;;;27.77;62.88;100501.34;5016995;28;20052;-88
2022/09/02 07:26:11;;;;;;;21.20;8.30;;;;;;;27.76;62.95;100499.69;5018188;28;20104;-85
2022/09/02 07:28:36;;;;;;;23.98;7.15;;;;;;;27.82;62.38;100518.06;5015947;28;20888;-84
2022/09/02 07:31:07;;;;;;;27.95;8.07;;;;;;;27.83;63.36;100514.22;5017074;28;20037;-84
2022/09/02 07:33:32;;;;;;;19.80;6.25;;;;;;;27.87;63.41;100518.19;5016347;28;20029;-84
2022/09/02 07:35:58;;;;;;;26.15;7.45;;;;;;;27.87;63.26;100492.44;4998773;28;20037;-84
2022/09/02 07:38:24;;;;;;;29.20;6.80;;;;;;;27.98;62.72;100500.75;5015696;28;20840;-84
2022/09/02 07:40:50;;;;;;;26.88;6.30;;;;;;;28.10;62.92;100495.25;5016248;28;20033;-83
2022/09/02 07:43:15;;;;;;;28.35;6.25;;;;;;;28.17;62.10;100484.03;5015518;28;20464;-84
2022/09/02 07:45:42;;;;;;;47.92;7.80;;;;;;;28.13;62.12;100488.38;5016619;28;20425;-84
2022/09/02 07:48:07;;;;;;;28.83;6.95;;;;;;;28.09;62.28;100480.56;5015275;28;20044;-86
2022/09/02 07:50:35;;;;;;;64.13;8.75;;;;;;;28.18;62.24;100494.03;5014877;28;20034;-80
2022/09/02 07:53:05;;;;;;;108.90;13.10;;;;;;;28.21;61.45;100491.63;5014689;28;20030;-82
2022/09/02 07:55:33;;;;;;;29.88;7.00;;;;;;;28.24;61.25;100504.97;5015345;28;20100;-88
2022/09/02 07:57:59;;;;;;;42.67;7.45;;;;;;;28.22;61.10;100495.22;5014764;28;20575;-81
2022/09/02 08:00:26;;;;;;;18.77;5.30;;;;;;;28.19;61.24;100504.00;5015213;28;20061;-85
2022/09/02 08:02:52;;;;;;;21.13;5.85;;;;;;;28.19;60.98;100506.78;5023912;28;20048;-83
2022/09/02 08:05:18;;;;;;;38.90;7.07;;;;;;;28.07;60.87;100499.31;5034546;28;20047;-84
2022/09/02 08:07:43;;;;;;;33.83;6.80;;;;;;;28.09;61.65;100501.84;5016135;28;20045;-83
2022/09/02 08:10:11;;;;;;;39.53;6.85;;;;;;;28.10;61.66;100512.66;5034880;28;20157;-88
2022/09/02 08:12:39;;;;;;;17.95;5.45;;;;;;;28.07;61.89;100513.16;5026896;28;20030;-83
2022/09/02 08:15:06;;;;;;;14.00;5.75;;;;;;;28.10;62.21;100512.66;5015835;28;20042;-83
2022/09/02 08:17:32;;;;;;;22.25;5.95;;;;;;;28.21;62.14;100518.44;5015130;28;20037;-86
2022/09/02 08:19:57;;;;;;;17.25;6.28;;;;;;;28.09;61.47;100513.75;5015746;28;20099;-84
2022/09/02 08:22:24;;;;;;;29.05;6.43;;;;;;;28.03;60.90;100509.16;5016500;28;20431;-86
2022/09/02 08:24:49;;;;;;;27.88;5.88;;;;;;;28.01;61.76;100516.03;5016298;28;20065;-91
2022/09/02 08:27:15;;;;;;;24.02;6.00;;;;;;;28.01;61.77;100508.53;5013546;28;20132;-83
2022/09/02 08:29:40;;;;;;;31.38;6.65;;;;;;;27.93;62.00;100497.88;5015088;28;20029;-87
2022/09/02 08:32:06;;;;;;;29.98;6.78;;;;;;;27.90;61.79;100512.16;5015234;28;20030;-85
2022/09/02 08:34:31;;;;;;;30.63;6.70;;;;;;;27.92;62.03;100507.22;5014862;28;20072;-87
2022/09/02 08:36:57;;;;;;;16.52;6.68;;;;;;;27.94;62.11;100512.53;5015196;28;20029;-86
2022/09/02 08:39:22;;;;;;;16.05;5.50;;;;;;;28.04;61.91;100505.34;5014902;28;20042;-82
2022/09/02 08:42:29;;;;;;;26.25;7.85;;;;;;;27.98;61.97;100509.03;5014513;28;20076;-79
2022/09/02 08:45:03;;;;;;;51.75;8.48;;;;;;;28.04;61.65;100513.63;4986781;28;20107;-85
2022/09/02 08:47:32;;;;;;;16.30;5.32;;;;;;;27.95;62.30;100509.50;5016415;28;20411;-87
2022/09/02 08:50:09;;;;;;;20.92;5.95;;;;;;;28.02;60.77;100490.88;4999890;28;20039;-78
2022/09/02 08:52:37;;;;;;;49.45;7.30;;;;;;;28.19;60.71;100498.47;5016275;28;20060;-77
2022/09/02 08:55:05;;;;;;;28.85;7.43;;;;;;;28.29;60.53;100493.16;5011706;28;20061;-78
2022/09/02 08:57:31;;;;;;;27.23;6.55;;;;;;;28.38;60.06;100486.16;5011483;28;20048;-75
2022/09/02 09:00:00;;;;;;;27.05;7.10;;;;;;;28.47;59.34;100490.25;5031047;28;20037;-77
2022/09/02 09:02:28;;;;;;;39.25;7.13;;;;;;;28.60;59.20;100495.47;5019574;28;20057;-83
2022/09/02 09:04:54;;;;;;;19.92;6.50;;;;;;;28.53;58.44;100497.56;5033589;28;20065;-83
2022/09/02 09:07:27;;;;;;;20.58;7.72;;;;;;;28.50;59.03;100482.25;5034529;28;20052;-83
2022/09/02 09:10:19;;;;;;;22.77;6.47;;;;;;;28.38;59.09;100500.81;5015659;28;20084;-84
2022/09/02 09:12:56;;;;;;;27.67;7.20;;;;;;;28.38;58.84;100509.13;5010575;28;20046;-91
2022/09/02 09:16:06;;;;;;;22.00;7.85;;;;;;;28.39;60.10;100504.44;4996557;28;20038;-84
2022/09/02 09:18:59;;;;;;;26.77;6.53;;;;;;;28.52;59.87;100504.19;5013789;28;20042;-86
2022/09/02 09:21:25;;;;;;;25.48;7.10;;;;;;;28.50;59.77;100503.59;5015720;28;20099;-80
2022/09/02 09:23:54;;;;;;;115.35;14.07;;;;;;;28.34;60.35;100507.09;5020327;28;20037;-79
2022/09/02 09:26:27;;;;;;;23.85;6.72;;;;;;;28.31;60.41;100488.22;5011482;28;20042;-78
2022/09/02 09:28:54;;;;;;;22.48;6.15;;;;;;;28.57;60.47;100491.28;5010573;28;20041;-79
2022/09/02 09:31:23;;;;;;;26.23;6.82;;;;;;;28.88;59.22;100497.44;4993028;28;20058;-79
2022/09/02 09:34:01;;;;;;;22.88;6.28;;;;;;;29.17;58.66;100491.63;5011247;28;20503;-79
2022/09/02 09:36:50;;;;;;;35.75;6.60;;;;;;;29.43;58.30;100490.19;5011529;28;20492;-79
2022/09/02 09:39:28;;;;;;;25.75;6.65;;;;;;;29.54;57.56;100486.47;5011418;28;20049;-79
2022/09/02 09:41:57;;;;;;;36.75;8.57;;;;;;;29.73;57.13;100489.81;5011131;28;20419;-78
2022/09/02 09:44:45;;;;;;;26.90;7.85;;;;;;;29.92;56.50;100487.66;5011265;28;20057;-78
2022/09/02 09:47:15;;;;;;;20.95;6.57;;;;;;;29.83;56.78;100476.16;5010880;28;20048;-78
2022/09/02 09:49:41;;;;;;;21.63;7.43;;;;;;;29.69;56.96;100466.50;5032204;28;20048;-79
2022/09/02 09:52:06;;;;;;;18.00;6.18;;;;;;;29.75;57.56;100487.66;5017631;28;20033;-80
2022/09/02 09:54:32;;;;;;;32.10;7.53;;;;;;;29.85;57.40;100482.28;5012944;28;21352;-81
2022/09/02 09:57:15;;;;;;;22.67;6.57;;;;;;;30.04;56.45;100480.91;5017494;28;20035;-84
2022/09/02 09:59:44;;;;;;;18.05;5.70;;;;;;;29.93;56.72;100470.75;5015454;28;20030;-77
2022/09/02 10:02:27;;;;;;;16.38;6.72;;;;;;;29.91;56.72;100472.94;5011727;28;20439;-79
2022/09/02 10:05:36;;;;;;;15.82;6.85;;;;;;;29.82;57.28;100460.59;5016563;28;20033;-78
2022/09/02 10:08:22;;;;;;;21.25;7.65;;;;;;;29.77;56.41;100445.78;4990400;28;20038;-81
2022/09/02 10:11:04;;;;;;;27.30;7.30;;;;;;;29.76;56.98;100444.94;5011664;28;20518;-79
2022/09/02 10:13:35;;;;;;;20.95;6.05;;;;;;;29.64;57.01;100447.00;5011709;28;20314;-80
2022/09/02 10:16:26;;;;;;;26.42;7.72;;;;;;;29.62;57.47;100424.22;5011676;28;20508;-79
2022/09/02 10:19:08;;;;;;;20.55;9.38;;;;;;;29.59;57.23;100421.97;5011807;28;20040;-80
2022/09/02 10:21:43;;;;;;;26.75;8.07;;;;;;;29.56;57.23;100430.78;5009758;28;20472;-79
2022/09/02 10:24:14;;;;;;;43.75;7.78;;;;;;;29.45;57.34;100417.84;5011293;28;20041;-79
2022/09/02 10:26:48;;;;;;;67.00;16.60;;;;;;;29.46;57.61;100419.53;5010850;28;20034;-80
2022/09/02 10:29:31;;;;;;;40.95;8.43;;;;;;;29.46;57.25;100414.00;5011092;28;20340;-78
2022/09/02 10:32:11;;;;;;;16.50;6.10;;;;;;;29.46;57.14;100403.75;5011546;28;20046;-80
2022/09/02 10:35:10;;;;;;;41.58;9.45;;;;;;;29.62;57.37;100410.38;5011511;28;20030;-79
2022/09/02 10:38:11;;;;;;;24.20;6.30;;;;;;;29.85;56.43;100418.50;4978399;28;20431;-79
2022/09/02 10:40:51;;;;;;;20.58;6.90;;;;;;;29.94;55.70;100425.28;5011436;28;20042;-79
2022/09/02 10:43:43;;;;;;;32.75;7.00;;;;;;;29.74;55.31;100413.88;5016119;28;20509;-78
2022/09/02 10:46:16;;;;;;;;;;;;;;;29.63;56.22;100418.41;5017348;28;20804;-78
2022/09/02 10:49:00;;;;;;;31.08;6.97;;;;;;;29.79;56.10;100421.41;5016053;28;19910;-78
2022/09/02 10:51:38;;;;;;;49.90;7.05;;;;;;;29.67;55.73;100427.06;5016298;28;20199;-79
2022/09/02 10:54:31;;;;;;;19.38;6.82;;;;;;;29.61;55.93;100428.94;5016476;28;20038;-78
2022/09/02 10:57:18;;;;;;;32.30;8.50;;;;;;;29.46;56.51;100405.69;5016363;28;20095;-79
2022/09/02 10:59:58;;;;;;;22.52;6.25;;;;;;;29.45;56.46;100426.16;5015604;28;20105;-78
2022/09/02 11:02:29;;;;;;;22.23;6.28;;;;;;;29.32;56.75;100415.44;5015686;28;20072;-78
2022/09/02 11:05:02;;;;;;;20.25;6.57;;;;;;;29.54;56.31;100413.59;5015593;28;20063;-78
2022/09/02 11:07:37;;;;;;;28.20;7.30;;;;;;;29.65;55.78;100437.59;5015344;28;20410;-80
2022/09/02 11:10:14;;;;;;;22.98;5.68;;;;;;;29.65;55.49;100420.94;5015877;28;20492;-79
2022/09/02 11:12:47;;;;;;;19.42;6.32;;;;;;;29.81;55.78;100430.34;5015576;28;20064;-78
2022/09/02 11:15:21;;;;;;;18.15;6.03;;;;;;;29.96;55.34;100431.41;5015620;28;20065;-80
2022/09/02 11:18:02;;;;;;;30.08;6.95;;;;;;;29.99;55.04;100430.91;5015412;28;20484;-78
2022/09/02 11:20:30;;;;;;;19.90;6.82;;;;;;;29.85;55.61;100437.91;4997789;28;20515;-78
2022/09/02 11:23:12;;;;;;;33.58;7.20;;;;;;;29.72;56.08;100420.78;5015577;28;20045;-79
2022/09/02 11:25:43;;;;;;;33.15;7.20;;;;;;;29.55;57.61;100420.78;5014918;28;20034;-78
2022/09/02 11:28:33;;;;;;;21.13;6.57;;;;;;;29.24;59.30;100418.63;5015715;28;20096;-79
2022/09/02 11:31:06;;;;;;;23.42;7.80;;;;;;;28.95;60.74;100427.00;5015162;28;20037;-79
2022/09/02 11:34:11;;;;;;;33.92;8.38;;;;;;;28.90;60.39;100426.88;5014991;28;20488;-79